Time;durP1;ratioP1;P1;durP2;ratioP2;P2;SDS_P1;SDS_P2;PMS_P1;PMS_P2;Temp;Humidity;BMP_temperature;BMP_pressure;BME280_temperature;BME280_humidity;BME280_pressure;Samples;Min_cycle;Max_cycle;Signal;HPM_P1;HPM_P2
2021/03/03 00:02:11;;;;;;;22.83;9.30;;;4.60;1.00;;;;;;5094247;28;20492;-67
2021/03/03 00:04:37;;;;;;;17.80;9.73;;;4.50;2.40;;;;;;5093593;28;20880;-67
2021/03/03 00:07:04;;;;;;;18.80;9.90;;;4.60;1.00;;;;;;5093600;28;20520;-67
2021/03/03 00:09:31;;;;;;;17.80;9.40;;;4.50;1.00;;;;;;5092940;28;21024;-67
2021/03/03 00:11:57;;;;;;;16.33;8.80;;;4.50;42.40;;;;;;5093389;28;20839;-67
2021/03/03 00:14:23;;;;;;;20.47;10.20;;;4.60;1.00;;;;;;5092293;28;20545;-67
2021/03/03 00:16:50;;;;;;;22.63;10.77;;;4.70;1.00;;;;;;5093116;28;20448;-67
2021/03/03 00:19:16;;;;;;;16.07;10.27;;;4.60;1.00;;;;;;5092888;28;20477;-66
2021/03/03 00:21:42;;;;;;;18.53;10.23;;;4.50;1.00;;;;;;5094270;28;20484;-66
2021/03/03 00:24:10;;;;;;;19.53;9.40;;;4.40;65.20;;;;;;5094078;28;20527;-66
2021/03/03 00:26:36;;;;;;;17.20;9.80;;;4.40;65.70;;;;;;5092465;28;20453;-66
2021/03/03 00:29:03;;;;;;;15.07;10.00;;;4.50;36.40;;;;;;5092232;28;20452;-66
2021/03/03 00:31:29;;;;;;;21.13;10.77;;;4.40;49.90;;;;;;5093602;28;20904;-67
2021/03/03 00:33:56;;;;;;;17.23;10.47;;;4.60;57.20;;;;;;5093173;28;20475;-66
2021/03/03 00:36:22;;;;;;;22.70;11.27;;;4.50;1.00;;;;;;5092693;28;20814;-66
2021/03/03 00:38:48;;;;;;;17.70;9.57;;;4.60;51.70;;;;;;5093063;28;20472;-67
2021/03/03 00:41:16;;;;;;;21.70;10.10;;;4.60;29.60;;;;;;5091822;28;20453;-67
2021/03/03 00:43:42;;;;;;;16.30;8.97;;;4.60;14.10;;;;;;5093170;28;20503;-66
2021/03/03 00:46:10;;;;;;;18.50;10.13;;;4.70;38.50;;;;;;5092662;28;20956;-66
2021/03/03 00:48:37;;;;;;;26.43;10.60;;;4.80;1.00;;;;;;5092879;28;20788;-66
2021/03/03 00:51:03;;;;;;;19.60;10.17;;;4.80;1.00;;;;;;5093208;28;20463;-67
2021/03/03 00:53:30;;;;;;;23.43;11.93;;;4.70;1.00;;;;;;5092344;28;20488;-67
2021/03/03 00:55:56;;;;;;;21.30;11.80;;;4.60;39.70;;;;;;5092296;28;20449;-67
2021/03/03 00:58:23;;;;;;;18.30;9.50;;;4.60;12.00;;;;;;5092165;28;20481;-67
2021/03/03 01:00:50;;;;;;;15.90;9.00;;;4.60;1.00;;;;;;5092196;28;20449;-67
2021/03/03 01:03:16;;;;;;;16.40;9.87;;;4.80;1.00;;;;;;5091461;28;20888;-68
2021/03/03 01:05:43;;;;;;;22.13;11.63;;;5.00;1.00;;;;;;5092617;28;20532;-67
2021/03/03 01:08:09;;;;;;;19.83;9.23;;;5.10;1.00;;;;;;5092918;28;20740;-67
2021/03/03 01:10:36;;;;;;;16.77;9.67;;;4.90;1.00;;;;;;5091782;28;20461;-67
2021/03/03 01:13:03;;;;;;;19.93;10.40;;;4.90;1.00;;;;;;5092304;28;20488;-66
2021/03/03 01:15:30;;;;;;;18.17;9.47;;;4.90;1.00;;;;;;5091273;28;20463;-66
2021/03/03 01:18:00;;;;;;;16.80;10.13;;;4.80;1.00;;;;;;5090562;28;20821;-65
2021/03/03 01:20:27;;;;;;;16.70;10.47;;;4.80;1.00;;;;;;5096008;28;20481;-66
2021/03/03 01:22:54;;;;;;;19.40;11.20;;;4.70;1.00;;;;;;5100584;28;20451;-66
2021/03/03 01:25:20;;;;;;;19.47;10.00;;;4.60;1.00;;;;;;5096579;28;20452;-66
2021/03/03 01:27:46;;;;;;;16.83;10.20;;;4.90;1.00;;;;;;5092994;28;20455;-67
2021/03/03 01:30:14;;;;;;;17.50;10.10;;;4.80;1.00;;;;;;5092771;28;20464;-66
2021/03/03 01:32:41;;;;;;;17.67;9.83;;;4.80;1.00;;;;;;5092625;28;20480;-67
2021/03/03 01:35:09;;;;;;;16.43;9.90;;;4.70;1.00;;;;;;5091999;28;20480;-66
2021/03/03 01:37:36;;;;;;;17.87;10.20;;;4.70;1.00;;;;;;5091362;28;20441;-67
2021/03/03 01:40:03;;;;;;;20.13;10.20;;;4.70;1.00;;;;;;5097026;28;20451;-66
2021/03/03 01:42:29;;;;;;;22.20;11.07;;;4.70;1.00;;;;;;5100951;28;20457;-66
2021/03/03 01:44:56;;;;;;;16.40;10.10;;;4.50;1.00;;;;;;5102335;28;20444;-66
2021/03/03 01:47:22;;;;;;;19.67;10.70;;;4.60;18.20;;;;;;5099886;28;20456;-66
2021/03/03 01:49:49;;;;;;;18.10;10.63;;;4.50;1.00;;;;;;5092905;28;20498;-67
2021/03/03 01:52:17;;;;;;;19.10;10.97;;;4.50;8.20;;;;;;5091217;28;20510;-64
2021/03/03 01:54:44;;;;;;;17.23;9.77;;;4.60;25.90;;;;;;5091968;28;20453;-67
2021/03/03 01:57:11;;;;;;;18.43;9.13;;;4.60;5.70;;;;;;5091861;28;20453;-67
2021/03/03 01:59:38;;;;;;;18.20;11.10;;;4.50;20.20;;;;;;5090933;28;20444;-67
2021/03/03 02:02:04;;;;;;;19.43;10.50;;;4.50;75.70;;;;;;5091482;28;21136;-66
2021/03/03 02:04:31;;;;;;;19.60;9.20;;;4.50;51.10;;;;;;5090934;28;20487;-67
2021/03/03 02:07:09;;;;;;;17.50;11.53;;;4.40;38.60;;;;;;5091500;28;20448;-66
2021/03/03 02:09:43;;;;;;;15.77;10.50;;;4.50;98.40;;;;;;5091211;28;20457;-67
2021/03/03 02:12:16;;;;;;;17.47;10.57;;;4.60;23.80;;;;;;5091905;28;20972;-67
2021/03/03 02:14:48;;;;;;;21.43;11.50;;;4.50;1.00;;;;;;5091418;28;20437;-66
2021/03/03 02:17:16;;;;;;;14.47;8.90;;;4.50;68.60;;;;;;5090894;28;20490;-67
2021/03/03 02:19:43;;;;;;;20.87;10.50;;;4.60;1.00;;;;;;5091940;28;20568;-66
2021/03/03 02:22:18;;;;;;;21.23;10.43;;;4.60;1.00;;;;;;5092100;28;20446;-66
2021/03/03 02:24:50;;;;;;;17.83;10.07;;;4.60;1.00;;;;;;5091730;28;20444;-66
2021/03/03 02:27:20;;;;;;;15.93;10.20;;;4.60;1.00;;;;;;5090923;28;20528;-67
2021/03/03 02:29:47;;;;;;;18.30;10.10;;;4.50;1.00;;;;;;5091874;28;20444;-66
2021/03/03 02:32:15;;;;;;;17.80;10.67;;;4.50;1.00;;;;;;5091353;28;20575;-66
2021/03/03 02:34:42;;;;;;;19.30;9.23;;;4.50;1.00;;;;;;5091788;28;20445;-66
2021/03/03 02:37:09;;;;;;;21.47;10.50;;;4.40;28.40;;;;;;5090914;28;20448;-66
2021/03/03 02:39:36;;;;;;;18.77;10.17;;;4.40;99.90;;;;;;5090972;28;20866;-67
2021/03/03 02:42:03;;;;;;;19.43;10.33;;;4.50;29.10;;;;;;5091552;28;20535;-67
2021/03/03 02:44:32;;;;;;;25.67;10.67;;;4.50;16.90;;;;;;5091050;28;20448;-67
2021/03/03 02:46:59;;;;;;;19.97;11.20;;;4.50;28.00;;;;;;5091189;28;20452;-67
2021/03/03 02:49:26;;;;;;;16.67;9.50;;;4.50;12.60;;;;;;5090984;28;20451;-67
2021/03/03 02:51:52;;;;;;;21.07;10.07;;;4.40;4.90;;;;;;5091472;28;20843;-66
2021/03/03 02:54:18;;;;;;;23.13;12.20;;;4.30;68.30;;;;;;5090628;28;20952;-66
2021/03/03 02:56:46;;;;;;;20.80;11.33;;;4.40;95.10;;;;;;5090769;28;20444;-66
2021/03/03 02:59:25;;;;;;;17.63;10.77;;;4.30;83.90;;;;;;5091247;28;20452;-67
2021/03/03 03:01:54;;;;;;;14.60;9.53;;;4.40;92.70;;;;;;5091296;28;20431;-65
2021/03/03 03:04:23;;;;;;;17.10;10.10;;;4.60;1.00;;;;;;5091404;28;20455;-66
2021/03/03 03:06:51;;;;;;;17.30;10.17;;;4.60;1.00;;;;;;5094904;28;20463;-65
2021/03/03 03:09:19;;;;;;;25.90;10.43;;;4.60;1.00;;;;;;5094761;28;20810;-66
2021/03/03 03:11:47;;;;;;;15.03;9.57;;;4.60;1.00;;;;;;5094972;28;20568;-66
2021/03/03 03:14:19;;;;;;;19.73;10.40;;;4.80;1.00;;;;;;5095337;28;20978;-66
2021/03/03 03:16:47;;;;;;;19.43;10.60;;;4.80;1.00;;;;;;5094646;28;20929;-66
2021/03/03 03:19:19;;;;;;;17.27;10.43;;;4.80;1.00;;;;;;5094927;28;20476;-66
2021/03/03 03:21:47;;;;;;;21.77;9.80;;;4.50;1.00;;;;;;5095304;28;20829;-66
2021/03/03 03:24:17;;;;;;;19.03;11.03;;;4.70;1.00;;;;;;5094941;28;20861;-66
2021/03/03 03:26:44;;;;;;;15.23;9.77;;;4.60;1.00;;;;;;5095298;28;20812;-65
2021/03/03 03:29:12;;;;;;;19.63;9.97;;;4.80;1.00;;;;;;5095216;28;20539;-66
2021/03/03 03:31:38;;;;;;;18.50;10.63;;;4.80;1.00;;;;;;5094142;28;20793;-66
2021/03/03 03:34:06;;;;;;;18.20;10.97;;;4.60;1.00;;;;;;5095056;28;20456;-65
2021/03/03 03:36:35;;;;;;;15.30;10.07;;;4.50;1.00;;;;;;5094066;28;20459;-66
2021/03/03 03:39:03;;;;;;;17.30;10.30;;;4.80;1.00;;;;;;5094972;28;20932;-66
2021/03/03 03:41:32;;;;;;;22.10;10.53;;;4.70;1.00;;;;;;5094286;28;20436;-65
2021/03/03 03:43:59;;;;;;;19.87;9.83;;;4.60;1.00;;;;;;5094662;28;20452;-66
2021/03/03 03:46:26;;;;;;;15.63;8.70;;;4.40;14.70;;;;;;5093753;28;20450;-66
2021/03/03 03:48:53;;;;;;;16.07;10.30;;;4.50;1.00;;;;;;5094349;28;20447;-66
2021/03/03 03:51:20;;;;;;;23.10;11.30;;;4.40;1.00;;;;;;5094118;28;20447;-66
2021/03/03 03:53:47;;;;;;;14.40;9.37;;;4.30;28.80;;;;;;5094363;28;20487;-65
2021/03/03 03:56:14;;;;;;;23.70;9.87;;;4.50;1.00;;;;;;5094373;28;20870;-66
2021/03/03 03:58:40;;;;;;;19.10;10.13;;;4.40;95.70;;;;;;5094667;28;20527;-66
2021/03/03 04:01:07;;;;;;;20.93;11.47;;;4.40;26.70;;;;;;5094400;28;20449;-66
2021/03/03 04:03:33;;;;;;;17.30;9.23;;;4.40;99.90;;;;;;5093828;28;20505;-66
2021/03/03 04:06:00;;;;;;;20.10;10.97;;;4.50;1.00;;;;;;5093866;28;20448;-66
2021/03/03 04:08:27;;;;;;;18.50;10.63;;;4.50;1.00;;;;;;5093968;28;20834;-66
2021/03/03 04:10:54;;;;;;;14.53;10.23;;;4.50;1.00;;;;;;5095402;28;20459;-66
2021/03/03 04:13:20;;;;;;;22.00;11.20;;;4.50;23.00;;;;;;5094213;28;20480;-66
2021/03/03 04:15:47;;;;;;;15.93;8.47;;;4.60;18.90;;;;;;5093825;28;20501;-66
2021/03/03 04:18:14;;;;;;;20.37;11.57;;;4.50;1.00;;;;;;5093878;28;20975;-66
2021/03/03 04:20:41;;;;;;;14.83;9.50;;;4.40;1.00;;;;;;5094439;28;20439;-66
2021/03/03 04:23:08;;;;;;;21.13;11.87;;;4.40;47.40;;;;;;5093551;28;20448;-66
2021/03/03 04:25:35;;;;;;;21.63;11.27;;;4.50;99.90;;;;;;5093099;28;21182;-65
2021/03/03 04:28:02;;;;;;;17.43;11.57;;;4.40;23.60;;;;;;5094001;28;20450;-66
2021/03/03 04:30:29;;;;;;;23.03;12.30;;;4.30;83.70;;;;;;5093326;28;20853;-66
2021/03/03 04:32:55;;;;;;;17.47;10.30;;;4.30;99.90;;;;;;5093481;28;21018;-66
2021/03/03 04:35:22;;;;;;;21.27;10.90;;;4.20;99.90;;;;;;5092492;28;20455;-66
2021/03/03 04:37:48;;;;;;;16.77;10.40;;;4.20;99.90;;;;;;5093940;28;20433;-66
2021/03/03 04:40:15;;;;;;;17.63;10.63;;;4.40;99.90;;;;;;5093421;28;20458;-67
2021/03/03 04:42:41;;;;;;;16.97;11.10;;;4.30;99.90;;;;;;5092896;28;20451;-66
2021/03/03 04:45:10;;;;;;;16.10;9.60;;;4.40;99.90;;;;;;5092354;28;20453;-66
2021/03/03 04:47:37;;;;;;;17.20;10.47;;;4.60;1.00;;;;;;5092967;28;20452;-66
2021/03/03 04:50:05;;;;;;;20.70;11.00;;;4.40;1.00;;;;;;5093316;28;20462;-65
2021/03/03 04:52:31;;;;;;;14.30;9.67;;;4.60;1.00;;;;;;5091786;28;20483;-66
2021/03/03 04:54:58;;;;;;;20.60;11.23;;;4.80;1.00;;;;;;5092978;28;20509;-65
2021/03/03 04:57:24;;;;;;;20.87;11.90;;;4.80;1.00;;;;;;5092613;28;20437;-65
2021/03/03 04:59:51;;;;;;;20.83;11.07;;;4.50;1.00;;;;;;5093347;28;20460;-66
2021/03/03 05:02:18;;;;;;;23.13;11.20;;;4.40;3.10;;;;;;5092556;28;20541;-66
2021/03/03 05:04:44;;;;;;;23.20;12.00;;;4.40;7.30;;;;;;5092043;28;20451;-65
2021/03/03 05:07:13;;;;;;;21.53;10.57;;;4.50;1.00;;;;;;5093238;28;20498;-68
2021/03/03 05:09:39;;;;;;;29.23;12.23;;;4.50;1.00;;;;;;5093127;28;20452;-69
2021/03/03 05:12:07;;;;;;;16.43;9.97;;;4.60;1.00;;;;;;5092771;28;20468;-77
2021/03/03 05:14:33;;;;;;;18.27;11.50;;;4.50;1.00;;;;;;5092506;28;20527;-69
2021/03/03 05:17:00;;;;;;;21.43;11.63;;;4.60;1.00;;;;;;5092663;28;20474;-69
2021/03/03 05:19:27;;;;;;;19.90;10.60;;;4.50;1.00;;;;;;5092187;28;20480;-68
2021/03/03 05:21:53;;;;;;;21.53;13.80;;;4.50;1.00;;;;;;5093028;28;20456;-68
2021/03/03 05:24:20;;;;;;;19.93;11.70;;;4.40;19.70;;;;;;5096379;28;20451;-69
2021/03/03 05:26:46;;;;;;;19.70;10.90;;;4.50;13.70;;;;;;5098069;28;20447;-68
2021/03/03 05:29:13;;;;;;;18.03;10.40;;;4.40;34.00;;;;;;5092649;28;20448;-68
2021/03/03 05:31:39;;;;;;;17.23;10.93;;;4.50;1.00;;;;;;5092211;28;20447;-67
2021/03/03 05:34:05;;;;;;;22.53;12.07;;;4.50;1.00;;;;;;5089211;28;20501;-67
2021/03/03 05:36:32;;;;;;;21.00;12.77;;;4.50;1.00;;;;;;5090995;28;20891;-68
2021/03/03 05:38:59;;;;;;;18.57;12.00;;;4.50;1.00;;;;;;5090306;28;20455;-68
2021/03/03 05:41:49;;;;;;;24.97;10.80;;;4.50;30.00;;;;;;5090329;28;20806;-68
2021/03/03 05:44:16;;;;;;;21.70;11.57;;;4.70;1.00;;;;;;5086571;28;20967;-68
2021/03/03 05:46:46;;;;;;;17.00;11.87;;;4.80;1.00;;;;;;5090685;28;20532;-67
2021/03/03 05:49:16;;;;;;;22.23;12.07;;;4.90;1.00;;;;;;5090379;28;20450;-68
2021/03/03 05:51:43;;;;;;;25.00;12.00;;;5.10;1.00;;;;;;5090538;28;20443;-69
2021/03/03 05:54:10;;;;;;;14.80;9.63;;;5.00;99.90;;;;;;5091118;28;20820;-68
2021/03/03 05:56:37;;;;;;;18.03;11.20;;;4.90;1.00;;;;;;5090090;28;20813;-69
2021/03/03 05:59:04;;;;;;;19.93;11.70;;;4.90;1.00;;;;;;5087677;28;20452;-69
2021/03/03 06:01:31;;;;;;;22.53;12.67;;;4.80;1.00;;;;;;5091336;28;20476;-72
2021/03/03 06:03:58;;;;;;;17.43;9.90;;;4.80;1.00;;;;;;5092000;28;20566;-68
2021/03/03 06:06:25;;;;;;;19.73;10.87;;;4.70;1.00;;;;;;5090968;28;21009;-68
2021/03/03 06:08:53;;;;;;;19.40;10.83;;;4.60;1.00;;;;;;5091418;28;20531;-69
2021/03/03 06:11:19;;;;;;;19.30;12.10;;;4.50;1.00;;;;;;5089892;28;20455;-67
2021/03/03 06:13:45;;;;;;;23.10;11.40;;;4.50;1.00;;;;;;5091028;28;20487;-67
2021/03/03 06:16:16;;;;;;;18.23;10.93;;;4.40;1.00;;;;;;5091076;28;20451;-67
2021/03/03 06:18:43;;;;;;;20.90;11.70;;;4.40;17.10;;;;;;5091147;28;20500;-69
2021/03/03 06:21:24;;;;;;;16.97;11.70;;;4.60;1.00;;;;;;5092026;28;20524;-68
2021/03/03 06:24:00;;;;;;;23.10;12.37;;;4.70;1.00;;;;;;5091346;28;20452;-68
2021/03/03 06:26:27;;;;;;;19.60;12.60;;;4.70;1.00;;;;;;5090761;28;20530;-68
2021/03/03 06:28:53;;;;;;;22.47;13.33;;;4.80;1.00;;;;;;5091404;28;20812;-67
2021/03/03 06:31:25;;;;;;;18.67;12.60;;;4.90;1.00;;;;;;5090999;28;20498;-69
2021/03/03 06:33:53;;;;;;;22.37;12.30;;;5.00;1.00;;;;;;5091107;28;20884;-68
2021/03/03 06:36:21;;;;;;;22.57;11.63;;;5.10;1.00;;;;;;5090741;28;20450;-68
2021/03/03 06:38:47;;;;;;;19.93;12.10;;;5.00;1.00;;;;;;5093325;28;20479;-69
2021/03/03 06:41:14;;;;;;;22.03;12.63;;;5.10;1.00;;;;;;5099202;28;21041;-69
2021/03/03 06:43:55;;;;;;;24.27;12.70;;;5.10;99.90;;;;;;5093323;28;20487;-69
2021/03/03 06:46:21;;;;;;;17.73;11.20;;;5.20;1.00;;;;;;5090677;28;20450;-72
2021/03/03 06:48:48;;;;;;;19.70;11.90;;;5.40;1.00;;;;;;5091273;28;20444;-71
2021/03/03 06:51:25;;;;;;;29.50;12.10;;;5.50;99.90;;;;;;5091020;28;20504;-72
2021/03/03 06:53:52;;;;;;;23.40;12.63;;;5.30;99.90;;;;;;5090984;28;20812;-71
2021/03/03 06:56:39;;;;;;;17.30;12.37;;;5.10;99.90;;;;;;5088823;28;20449;-71
2021/03/03 06:59:11;;;;;;;19.87;12.37;;;5.10;99.90;;;;;;5090702;28;20545;-72
2021/03/03 07:01:37;;;;;;;21.13;11.80;;;5.10;1.00;;;;;;5091077;28;20456;-72
2021/03/03 07:04:04;;;;;;;16.93;11.10;;;5.20;99.90;;;;;;5093896;28;20490;-72
2021/03/03 07:06:32;;;;;;;23.60;12.30;;;5.10;1.00;;;;;;5090547;28;20472;-72
2021/03/03 07:08:59;;;;;;;19.90;12.87;;;5.10;1.00;;;;;;5092144;28;20446;-72
2021/03/03 07:11:29;;;;;;;23.10;12.20;;;5.10;1.00;;;;;;5091398;28;20441;-71
2021/03/03 07:13:56;;;;;;;23.97;11.77;;;5.20;1.00;;;;;;5091893;28;20477;-71
2021/03/03 07:16:23;;;;;;;22.20;12.97;;;5.20;1.00;;;;;;5090406;28;20452;-72
2021/03/03 07:18:49;;;;;;;24.63;14.43;;;5.40;1.00;;;;;;5097279;28;20477;-71
2021/03/03 07:21:36;;;;;;;19.90;12.17;;;5.40;99.90;;;;;;5099196;28;20526;-71
2021/03/03 07:24:03;;;;;;;25.30;13.60;;;5.40;99.90;;;;;;5097261;28;20461;-72
2021/03/03 07:26:30;;;;;;;20.03;11.73;;;5.50;99.90;;;;;;5091799;28;20560;-72
2021/03/03 07:28:58;;;;;;;23.13;11.80;;;5.70;99.90;;;;;;5091247;28;20535;-72
2021/03/03 07:31:24;;;;;;;20.00;11.23;;;5.90;1.00;;;;;;5089981;28;20456;-71
2021/03/03 07:33:51;;;;;;;20.10;11.53;;;5.90;1.00;;;;;;5087192;28;20585;-72
2021/03/03 07:36:20;;;;;;;20.87;13.30;;;5.80;99.90;;;;;;5090040;28;20455;-72
2021/03/03 07:38:48;;;;;;;19.70;12.37;;;5.80;1.00;;;;;;5088653;28;20456;-72
2021/03/03 07:41:16;;;;;;;21.33;12.67;;;5.80;1.00;;;;;;5088689;28;20447;-72
2021/03/03 07:43:48;;;;;;;21.23;13.10;;;5.90;1.00;;;;;;5089441;28;20466;-72
2021/03/03 07:46:16;;;;;;;19.93;11.70;;;6.00;1.00;;;;;;5085414;28;20547;-72
2021/03/03 07:48:49;;;;;;;18.50;12.27;;;6.00;99.90;;;;;;5089110;28;20463;-71
2021/03/03 07:51:18;;;;;;;18.87;12.13;;;6.20;15.10;;;;;;5090563;28;20573;-72
2021/03/03 07:53:44;;;;;;;21.93;13.20;;;6.20;1.00;;;;;;5092748;28;20562;-72
2021/03/03 07:56:12;;;;;;;19.40;12.23;;;6.30;99.90;;;;;;5092286;28;20531;-70
2021/03/03 07:58:40;;;;;;;19.67;12.03;;;6.40;54.80;;;;;;5092435;28;20789;-71
2021/03/03 08:01:11;;;;;;;24.60;13.87;;;6.60;1.00;;;;;;5093551;28;20489;-71
2021/03/03 08:03:45;;;;;;;20.90;11.90;;;6.80;99.90;;;;;;5093902;28;20466;-71
2021/03/03 08:06:27;;;;;;;21.30;13.17;;;6.90;1.00;;;;;;5093788;28;20440;-72
2021/03/03 08:09:13;;;;;;;19.73;11.93;;;7.60;99.90;;;;;;5094475;28;20429;-71
2021/03/03 08:11:42;;;;;;;21.53;12.20;;;7.40;99.90;;;;;;5093933;28;20959;-72
2021/03/03 08:14:34;;;;;;;24.00;12.60;;;7.30;71.20;;;;;;5092064;28;21041;-71
2021/03/03 08:17:02;;;;;;;23.30;12.67;;;7.10;99.90;;;;;;5083758;28;20441;-71
2021/03/03 08:19:52;;;;;;;27.17;12.37;;;7.10;1.00;;;;;;5090954;28;20496;-71
2021/03/03 08:22:19;;;;;;;21.73;11.53;;;7.20;99.90;;;;;;5092440;28;20448;-71
2021/03/03 08:24:45;;;;;;;17.10;12.10;;;7.20;1.00;;;;;;5093239;28;20505;-72
2021/03/03 08:27:37;;;;;;;19.97;12.20;;;7.50;99.90;;;;;;5093263;28;20992;-72
2021/03/03 08:30:11;;;;;;;21.93;13.20;;;7.50;99.90;;;;;;5093744;28;20444;-72
2021/03/03 08:32:38;;;;;;;24.93;13.20;;;7.70;1.00;;;;;;5093211;28;20545;-72
2021/03/03 08:35:07;;;;;;;25.30;12.20;;;7.80;1.00;;;;;;5094043;28;20463;-72
2021/03/03 08:37:35;;;;;;;26.00;11.40;;;7.90;99.90;;;;;;5092720;28;20532;-72
2021/03/03 08:40:04;;;;;;;19.20;11.47;;;8.10;99.90;;;;;;5093559;28;20461;-72
2021/03/03 08:42:33;;;;;;;23.67;12.47;;;8.30;99.90;;;;;;5093088;28;20527;-72
2021/03/03 08:45:03;;;;;;;21.13;11.83;;;8.50;1.00;;;;;;5092757;28;20444;-72
2021/03/03 08:47:52;;;;;;;20.10;11.53;;;8.40;1.00;;;;;;5092358;28;20479;-72
2021/03/03 08:50:44;;;;;;;18.63;12.23;;;8.60;1.00;;;;;;5092959;28;20451;-72
2021/03/03 08:53:29;;;;;;;20.67;11.07;;;8.70;1.00;;;;;;5092912;28;20468;-72
2021/03/03 08:55:57;;;;;;;26.53;12.10;;;8.80;99.90;;;;;;5076983;28;20497;-73
2021/03/03 08:59:00;;;;;;;19.43;12.60;;;9.00;99.90;;;;;;5092779;28;20449;-72
2021/03/03 09:01:57;;;;;;;18.53;11.43;;;9.20;99.90;;;;;;5091678;28;20451;-72
2021/03/03 09:04:27;;;;;;;17.90;11.43;;;9.30;43.20;;;;;;5009603;28;20464;-72
2021/03/03 09:06:56;;;;;;;18.03;11.17;;;9.30;1.00;;;;;;5068030;28;20453;-71
2021/03/03 09:09:24;;;;;;;18.13;11.73;;;9.40;1.00;;;;;;5092449;28;20456;-71
2021/03/03 09:11:58;;;;;;;15.90;12.03;;;9.50;1.00;;;;;;5099982;28;20444;-71
2021/03/03 09:14:25;;;;;;;21.37;12.30;;;9.60;1.00;;;;;;5095099;28;20448;-72
2021/03/03 09:16:57;;;;;;;21.23;12.00;;;9.70;1.00;;;;;;5093080;28;20451;-72
2021/03/03 09:19:24;;;;;;;19.83;12.70;;;9.60;1.00;;;;;;5091574;28;20481;-72
2021/03/03 09:21:50;;;;;;;23.80;13.93;;;9.70;1.00;;;;;;5090768;28;20535;-71
2021/03/03 09:24:18;;;;;;;14.40;12.40;;;9.80;1.00;;;;;;5092018;28;20448;-73
2021/03/03 09:26:44;;;;;;;20.73;11.17;;;9.90;1.00;;;;;;5092134;28;20445;-69
2021/03/03 09:29:28;;;;;;;20.17;11.50;;;9.90;1.00;;;;;;5092033;28;20480;-69
2021/03/03 09:31:56;;;;;;;18.77;11.03;;;10.10;1.00;;;;;;5092477;28;20445;-69
2021/03/03 09:34:22;;;;;;;25.50;12.33;;;10.00;1.00;;;;;;5091341;28;20456;-70
2021/03/03 09:36:56;;;;;;;31.03;13.30;;;10.10;1.00;;;;;;5092077;28;20449;-70
2021/03/03 09:39:25;;;;;;;22.77;12.40;;;10.00;1.00;;;;;;5091644;28;20908;-70
2021/03/03 09:41:59;;;;;;;21.43;12.77;;;10.10;1.00;;;;;;5091931;28;20441;-70
2021/03/03 09:44:26;;;;;;;19.83;13.03;;;10.20;1.00;;;;;;5091062;28;20921;-70
2021/03/03 09:46:57;;;;;;;14.40;11.07;;;10.10;1.00;;;;;;5091902;28;20463;-70
2021/03/03 09:49:26;;;;;;;21.97;12.33;;;10.30;1.00;;;;;;5091082;28;20441;-70
2021/03/03 09:51:53;;;;;;;20.40;12.30;;;10.30;1.00;;;;;;5090769;28;20535;-71
2021/03/03 09:54:31;;;;;;;22.53;12.33;;;10.30;1.00;;;;;;5090737;28;20849;-71
2021/03/03 09:57:09;;;;;;;29.37;12.93;;;10.40;1.00;;;;;;5091160;28;20444;-71
2021/03/03 09:59:39;;;;;;;27.23;12.53;;;10.50;99.90;;;;;;5091692;28;20483;-71
2021/03/03 10:02:06;;;;;;;23.07;12.50;;;10.50;99.90;;;;;;5091643;28;20451;-71
2021/03/03 10:04:37;;;;;;;16.93;11.67;;;10.50;99.90;;;;;;5090188;28;20463;-70
2021/03/03 10:07:09;;;;;;;20.83;12.23;;;10.60;99.90;;;;;;5091388;28;20524;-70
2021/03/03 10:09:39;;;;;;;20.13;12.40;;;10.90;99.90;;;;;;5090534;28;20452;-70
2021/03/03 10:12:11;;;;;;;21.87;11.80;;;10.90;99.90;;;;;;5091788;28;20528;-70
2021/03/03 10:14:55;;;;;;;20.83;11.80;;;11.00;99.90;;;;;;5090166;28;20448;-70
2021/03/03 10:17:42;;;;;;;20.10;12.60;;;11.10;99.90;;;;;;5089699;28;20468;-71
2021/03/03 10:20:30;;;;;;;24.97;12.90;;;11.10;99.90;;;;;;5090883;28;20476;-71
2021/03/03 10:22:57;;;;;;;23.60;12.47;;;11.40;99.90;;;;;;5091138;28;20493;-75
2021/03/03 10:25:33;;;;;;;18.53;10.93;;;11.50;99.90;;;;;;5090303;28;20453;-71
2021/03/03 10:28:09;;;;;;;24.83;17.07;;;11.70;99.90;;;;;;5088240;28;20503;-71
2021/03/03 10:30:38;;;;;;;24.23;12.80;;;11.70;99.90;;;;;;5088392;28;20520;-71
2021/03/03 10:33:04;;;;;;;18.90;11.13;;;11.50;99.90;;;;;;5090222;28;20491;-71
2021/03/03 10:35:31;;;;;;;19.83;11.20;;;11.70;99.90;;;;;;5090052;28;20436;-70
2021/03/03 10:38:11;;;;;;;23.77;14.30;;;11.90;99.90;;;;;;5090929;28;20436;-71
2021/03/03 10:40:40;;;;;;;28.13;15.07;;;11.80;99.90;;;;;;5090938;28;20542;-71
2021/03/03 10:43:11;;;;;;;25.03;14.23;;;11.90;99.90;;;;;;5091017;28;20509;-71
2021/03/03 10:45:38;;;;;;;24.93;14.13;;;11.90;99.90;;;;;;5088730;28;20520;-70
2021/03/03 10:48:05;;;;;;;31.77;17.93;;;11.80;99.90;;;;;;5089595;28;21070;-71
2021/03/03 10:50:33;;;;;;;24.90;15.07;;;11.50;99.90;;;;;;5089937;28;20945;-70
2021/03/03 10:53:01;;;;;;;25.20;14.00;;;11.50;99.90;;;;;;5090764;28;20555;-71
2021/03/03 10:55:33;;;;;;;26.97;15.50;;;11.60;99.90;;;;;;5088281;28;20494;-71
2021/03/03 10:58:06;;;;;;;22.13;14.17;;;11.90;99.90;;;;;;5090321;28;20475;-71
2021/03/03 11:00:33;;;;;;;29.50;17.10;;;11.60;99.90;;;;;;5089280;28;20984;-71
2021/03/03 11:03:04;;;;;;;23.43;17.10;;;11.60;99.90;;;;;;5089702;28;20539;-70
2021/03/03 11:05:30;;;;;;;25.30;16.13;;;11.60;99.90;;;;;;5089773;28;20437;-71
2021/03/03 11:07:58;;;;;;;21.67;15.77;;;11.60;99.90;;;;;;5090623;28;20460;-71
2021/03/03 11:10:25;;;;;;;21.73;15.43;;;11.80;99.90;;;;;;5089317;28;20474;-71
2021/03/03 11:12:52;;;;;;;22.10;14.33;;;11.60;99.90;;;;;;5090494;28;20570;-71
2021/03/03 11:15:19;;;;;;;26.13;14.60;;;11.60;99.90;;;;;;5089376;28;20445;-71
2021/03/03 11:17:46;;;;;;;26.07;15.37;;;11.80;99.90;;;;;;5090587;28;20472;-71
2021/03/03 11:20:13;;;;;;;23.47;15.30;;;12.00;99.90;;;;;;5090890;28;20502;-70
2021/03/03 11:22:39;;;;;;;21.40;14.40;;;11.90;99.90;;;;;;5089426;28;20535;-70
2021/03/03 11:25:06;;;;;;;20.90;14.53;;;12.00;99.90;;;;;;5090571;28;20647;-71
2021/03/03 11:27:33;;;;;;;23.23;14.23;;;12.00;99.90;;;;;;5093017;28;20800;-71
2021/03/03 11:29:59;;;;;;;22.33;15.07;;;12.10;99.90;;;;;;5094060;28;20843;-71
2021/03/03 11:32:27;;;;;;;26.80;16.83;;;12.10;99.90;;;;;;5092840;28;20535;-70
2021/03/03 11:34:53;;;;;;;21.53;13.83;;;12.20;99.90;;;;;;5094543;28;20514;-70
2021/03/03 11:37:19;;;;;;;26.47;16.50;;;12.40;99.90;;;;;;5093913;28;20535;-71
2021/03/03 11:39:46;;;;;;;24.20;16.10;;;12.30;99.90;;;;;;5094898;28;20466;-71
2021/03/03 11:42:12;;;;;;;23.27;14.90;;;12.30;99.90;;;;;;5097687;28;20510;-71
2021/03/03 11:44:39;;;;;;;23.43;15.90;;;12.40;99.90;;;;;;5102836;28;20472;-71
2021/03/03 11:47:05;;;;;;;24.03;15.13;;;12.60;99.90;;;;;;5095454;28;20447;-70
2021/03/03 11:49:32;;;;;;;24.93;17.20;;;12.60;99.90;;;;;;5093794;28;20487;-70
2021/03/03 11:51:59;;;;;;;27.97;17.10;;;12.60;99.90;;;;;;5094319;28;20784;-70
2021/03/03 11:54:25;;;;;;;26.33;16.20;;;12.60;99.90;;;;;;5093516;28;20472;-71
2021/03/03 11:56:52;;;;;;;26.00;16.60;;;12.70;99.90;;;;;;5094657;28;20440;-71
2021/03/03 11:59:18;;;;;;;27.83;15.23;;;12.80;99.90;;;;;;5093512;28;20540;-71
2021/03/03 12:01:44;;;;;;;20.30;15.00;;;12.50;99.90;;;;;;5094041;28;20458;-70
2021/03/03 12:04:11;;;;;;;21.47;15.23;;;12.60;99.90;;;;;;5093708;28;20453;-71
2021/03/03 12:06:38;;;;;;;19.63;15.17;;;12.70;99.90;;;;;;5093529;28;20498;-71
2021/03/03 12:09:05;;;;;;;17.97;13.97;;;12.70;99.90;;;;;;5093500;28;21011;-71
2021/03/03 12:11:31;;;;;;;24.43;16.37;;;12.70;99.90;;;;;;5093292;28;20442;-70
2021/03/03 12:13:58;;;;;;;19.47;15.47;;;12.80;99.90;;;;;;5093753;28;20941;-71
2021/03/03 12:16:24;;;;;;;24.50;14.73;;;12.90;99.90;;;;;;5092429;28;20936;-71
2021/03/03 12:18:50;;;;;;;24.40;15.67;;;12.70;99.90;;;;;;5093173;28;20529;-70
2021/03/03 12:21:17;;;;;;;23.23;14.87;;;12.80;99.90;;;;;;5093030;28;20506;-71
2021/03/03 12:23:44;;;;;;;27.23;16.20;;;12.80;99.90;;;;;;5093549;28;20535;-71
2021/03/03 12:26:11;;;;;;;26.77;15.90;;;12.80;99.90;;;;;;5090951;28;20445;-69
2021/03/03 12:28:37;;;;;;;23.47;14.93;;;12.80;99.90;;;;;;5092811;28;20545;-70
2021/03/03 12:31:04;;;;;;;24.03;14.47;;;12.80;99.90;;;;;;5093525;28;20558;-69
2021/03/03 12:33:30;;;;;;;25.33;15.80;;;13.00;99.90;;;;;;5091493;28;20562;-69
2021/03/03 12:35:57;;;;;;;24.93;15.63;;;13.20;99.90;;;;;;5092068;28;20499;-70
2021/03/03 12:38:23;;;;;;;26.37;15.80;;;13.40;99.90;;;;;;5091496;28;20595;-70
2021/03/03 12:40:50;;;;;;;21.30;16.53;;;13.30;99.90;;;;;;5092805;28;20449;-70
2021/03/03 12:43:17;;;;;;;22.00;14.23;;;13.20;99.90;;;;;;5092894;28;20484;-70
2021/03/03 12:45:43;;;;;;;22.87;15.80;;;13.30;99.90;;;;;;5092219;28;20451;-70
2021/03/03 12:48:10;;;;;;;29.67;14.63;;;13.40;99.90;;;;;;5092815;28;20440;-70
2021/03/03 12:50:37;;;;;;;17.27;12.00;;;13.70;99.90;;;;;;5091676;28;20781;-70